Time;durP1;ratioP1;P1;durP2;ratioP2;P2;SDS_P1;SDS_P2;PMS_P1;PMS_P2;Temp;Humidity;BMP_temperature;BMP_pressure;BME280_temperature;BME280_humidity;BME280_pressure;Samples;Min_cycle;Max_cycle;Signal;HPM_P1;HPM_P2
2021/01/10 00:00:10;;;;;;;;;89.00;57.50;;;;;-2.06;96.33;100411.22;5001557;28;8835;-62
2021/01/10 00:02:38;;;;;;;;;84.50;56.00;;;;;-1.96;96.51;100420.00;4967999;28;8933;-63
2021/01/10 00:05:12;;;;;;;;;77.25;54.00;;;;;-1.90;96.60;100414.75;4985614;28;8841;-62
2021/01/10 00:07:39;;;;;;;;;99.00;66.25;;;;;-1.70;96.57;100415.63;4981148;28;8837;-62
2021/01/10 00:10:09;;;;;;;;;79.00;57.00;;;;;-2.01;96.24;100414.75;4998834;28;8852;-62
2021/01/10 00:12:37;;;;;;;;;94.00;58.50;;;;;-1.66;96.62;100417.41;4979176;28;8859;-62
2021/01/10 00:15:17;;;;;;;;;78.50;54.75;;;;;-1.64;96.86;100420.03;4987954;28;8934;-62
2021/01/10 00:17:48;;;;;;;;;64.50;47.75;;;;;-1.60;96.83;100419.16;4999664;28;8867;-62
2021/01/10 00:20:18;;;;;;;;;86.00;56.75;;;;;-1.30;96.41;100422.63;4968672;28;8864;-62
2021/01/10 00:22:51;;;;;;;;;79.75;55.00;;;;;-1.75;96.27;100422.66;4979374;28;8858;-62
2021/01/10 00:25:19;;;;;;;;;71.00;48.25;;;;;-1.83;96.00;100419.16;5000991;28;8855;-62
2021/01/10 00:27:47;;;;;;;;;63.50;42.25;;;;;-1.75;96.47;100420.03;5002132;28;8859;-62
2021/01/10 00:30:20;;;;;;;;;72.50;49.00;;;;;-1.84;96.25;100422.66;5006361;28;8862;-62
2021/01/10 00:32:56;;;;;;;;;71.00;44.25;;;;;-2.01;96.04;100425.25;4993111;28;8947;-62
2021/01/10 00:35:25;;;;;;;;;67.75;47.50;;;;;-1.95;96.29;100432.28;5002093;28;8835;-62
2021/01/10 00:37:55;;;;;;;;;70.50;47.75;;;;;-1.95;96.24;100429.66;5001615;28;9663;-62
2021/01/10 00:40:25;;;;;;;;;79.00;52.75;;;;;-1.81;96.28;100439.31;4997290;28;8962;-62
2021/01/10 00:42:53;;;;;;;;;79.25;49.00;;;;;-1.96;95.93;100430.53;5001294;28;8944;-62
2021/01/10 00:45:21;;;;;;;;;117.75;76.00;;;;;-1.83;96.42;100440.19;5002835;28;8838;-62
2021/01/10 00:47:48;;;;;;;;;91.75;62.50;;;;;-1.78;96.46;100443.72;4980109;28;8869;-62
2021/01/10 00:50:16;;;;;;;;;195.75;129.50;;;;;-1.78;96.33;100448.97;5004456;28;8876;-62
2021/01/10 00:52:43;;;;;;;;;67.25;40.75;;;;;-1.57;96.29;100453.38;4998885;28;8847;-62
2021/01/10 00:55:10;;;;;;;;;68.25;45.25;;;;;-1.86;96.20;100462.13;4997232;28;8832;-62
2021/01/10 00:57:38;;;;;;;;;92.50;64.25;;;;;-1.70;95.94;100454.25;4998286;28;8851;-62
2021/01/10 01:00:13;;;;;;;;;90.00;69.00;;;;;-1.86;96.60;100461.25;4993399;28;9722;-62
2021/01/10 01:02:40;;;;;;;;;66.25;43.75;;;;;-1.91;97.08;100457.75;4999058;28;8858;-62
2021/01/10 01:05:08;;;;;;;;;178.75;127.75;;;;;-1.82;97.19;100458.63;5000636;28;8851;-62
2021/01/10 01:07:35;;;;;;;;;110.00;72.25;;;;;-1.93;97.11;100459.47;4999269;28;8855;-62
2021/01/10 01:10:04;;;;;;;;;83.50;54.25;;;;;-1.76;97.23;100468.28;5002840;28;8885;-62
2021/01/10 01:12:31;;;;;;;;;80.50;49.25;;;;;-1.82;97.31;100463.00;5004320;28;8889;-62
2021/01/10 01:14:58;;;;;;;;;78.00;52.00;;;;;-1.79;97.40;100468.25;5005676;28;8849;-62
2021/01/10 01:17:25;;;;;;;;;76.00;49.00;;;;;-1.73;97.66;100465.66;4987772;28;8847;-62
2021/01/10 01:19:52;;;;;;;;;67.25;50.25;;;;;-1.49;97.05;100466.53;5004359;28;8901;-62
2021/01/10 01:22:19;;;;;;;;;141.50;92.50;;;;;-1.24;97.04;100468.25;4997923;28;8961;-62
2021/01/10 01:24:46;;;;;;;;;178.75;127.00;;;;;-1.23;97.05;100464.78;5004366;28;8863;-62
2021/01/10 01:27:13;;;;;;;;;72.25;48.75;;;;;-1.52;96.90;100461.28;4979565;28;8866;-62
2021/01/10 01:29:40;;;;;;;;;98.00;65.00;;;;;-1.74;96.82;100455.13;5004408;28;8839;-62
2021/01/10 01:32:07;;;;;;;;;72.25;48.00;;;;;-1.51;96.90;100461.25;4998656;28;8878;-63
2021/01/10 01:34:34;;;;;;;;;68.25;44.25;;;;;-1.71;96.84;100456.00;5005454;28;8873;-62
2021/01/10 01:37:03;;;;;;;;;67.00;43.00;;;;;-1.78;96.96;100457.75;5005784;28;8991;-62
2021/01/10 01:39:31;;;;;;;;;115.75;81.75;;;;;-1.72;97.20;100451.59;5000738;28;8862;-62
2021/01/10 01:41:58;;;;;;;;;91.75;61.50;;;;;-1.79;97.10;100452.47;4999115;28;8850;-62
2021/01/10 01:44:25;;;;;;;;;75.50;54.50;;;;;-1.87;97.02;100451.59;5007126;28;8833;-62
2021/01/10 01:46:52;;;;;;;;;81.25;53.00;;;;;-1.94;96.98;100447.22;4998837;28;8945;-62
2021/01/10 01:49:23;;;;;;;;;250.25;175.25;;;;;-1.84;97.23;100448.97;5001553;28;8937;-62
2021/01/10 01:51:51;;;;;;;;;76.50;52.50;;;;;-2.00;97.45;100446.31;4996889;28;8905;-62
2021/01/10 01:54:18;;;;;;;;;83.75;54.00;;;;;-1.91;97.47;100437.56;5005128;28;8835;-62
2021/01/10 01:56:46;;;;;;;;;161.25;124.75;;;;;-1.82;97.35;100437.59;4985940;28;8854;-62
2021/01/10 01:59:13;;;;;;;;;79.50;52.50;;;;;-1.55;96.93;100422.66;5005354;28;8883;-62
2021/01/10 02:01:40;;;;;;;;;123.25;81.50;;;;;-1.90;97.37;100430.53;5000948;28;8928;-62
2021/01/10 02:04:19;;;;;;;;;91.00;64.25;;;;;-1.87;97.42;100434.06;5004629;28;8862;-62
2021/01/10 02:07:04;;;;;;;;;77.75;53.25;;;;;-1.90;96.91;100423.50;4991659;28;8957;-62
2021/01/10 02:09:42;;;;;;;;;71.75;48.75;;;;;-1.73;96.91;100430.56;5002648;28;9701;-62
2021/01/10 02:12:13;;;;;;;;;74.25;51.00;;;;;-1.90;96.74;100428.78;5003163;28;8864;-62
2021/01/10 02:14:58;;;;;;;;;83.00;52.00;;;;;-1.78;97.26;100428.78;4979732;28;8831;-62
2021/01/10 02:17:28;;;;;;;;;63.50;44.00;;;;;-2.00;97.35;100430.53;4988650;28;8867;-63
2021/01/10 02:20:05;;;;;;;;;64.00;28.00;;;;;-1.69;97.42;100427.03;4997656;28;8858;-62
2021/01/10 02:22:44;;;;;;;;;57.75;44.25;;;;;-1.90;97.49;100427.91;4997802;28;8837;-62
2021/01/10 02:25:12;;;;;;;;;63.00;39.50;;;;;-1.90;97.22;100427.91;5000381;28;8828;-62
2021/01/10 02:27:43;;;;;;;;;61.25;41.75;;;;;-1.71;97.23;100428.78;4995182;28;8936;-63
2021/01/10 02:30:13;;;;;;;;;65.25;46.75;;;;;-1.88;97.03;100437.56;4985141;28;8975;-62
2021/01/10 02:32:46;;;;;;;;;59.00;34.50;;;;;-1.75;96.90;100433.19;4988582;28;8937;-62
2021/01/10 02:35:16;;;;;;;;;57.25;41.00;;;;;-1.86;96.80;100437.56;4999112;28;8865;-62
2021/01/10 02:38:37;;;;;;;;;56.25;33.25;;;;;-1.95;96.93;100441.03;4986371;28;8856;-62
2021/01/10 02:41:26;;;;;;;;;51.25;36.25;;;;;-1.92;97.05;100435.81;4996903;28;8847;-62
2021/01/10 02:44:24;;;;;;;;;66.50;44.75;;;;;-1.99;96.77;100428.78;4996419;28;8860;-62
2021/01/10 02:46:53;;;;;;;;;59.50;40.75;;;;;-1.94;96.52;100431.41;4995573;28;8867;-62
2021/01/10 02:49:22;;;;;;;;;50.00;38.00;;;;;-2.06;96.54;100433.13;5002721;28;8905;-62
2021/01/10 02:51:52;;;;;;;;;72.75;45.50;;;;;-2.00;96.99;100429.66;5002777;28;8863;-62
2021/01/10 02:54:20;;;;;;;;;69.25;45.75;;;;;-1.90;96.92;100431.41;5004197;28;8844;-62
2021/01/10 02:57:08;;;;;;;;;72.00;44.50;;;;;-2.04;96.90;100434.03;4978010;28;8874;-62
2021/01/10 02:59:42;;;;;;;;;56.00;35.75;;;;;-2.03;96.95;100433.16;4989179;28;8862;-62
2021/01/10 03:02:12;;;;;;;;;65.75;41.25;;;;;-2.08;96.89;100429.66;5002366;28;8886;-62
2021/01/10 03:04:41;;;;;;;;;63.75;47.25;;;;;-2.00;96.80;100433.16;4998150;28;8990;-62
2021/01/10 03:07:09;;;;;;;;;59.75;41.00;;;;;-1.94;96.84;100436.69;5001106;28;8871;-63
2021/01/10 03:09:37;;;;;;;;;71.75;45.50;;;;;-1.94;97.03;100437.56;5003413;28;8839;-62
2021/01/10 03:12:14;;;;;;;;;65.25;48.00;;;;;-2.03;96.73;100438.44;4984792;28;9930;-62
2021/01/10 03:14:45;;;;;;;;;65.50;40.75;;;;;-1.96;96.84;100436.66;5000048;28;8848;-62
2021/01/10 03:17:42;;;;;;;;;72.75;49.50;;;;;-1.65;97.54;100428.81;4998843;28;8858;-62
2021/01/10 03:20:20;;;;;;;;;71.25;46.75;;;;;-1.74;97.10;100437.56;4980542;28;8875;-62
2021/01/10 03:22:51;;;;;;;;;67.25;44.50;;;;;-1.70;96.59;100441.09;5002769;28;8879;-62
2021/01/10 03:25:22;;;;;;;;;52.50;37.25;;;;;-1.85;96.79;100432.28;4994296;28;8862;-62
2021/01/10 03:27:49;;;;;;;;;67.25;44.50;;;;;-1.62;96.89;100424.41;4994123;28;8812;-62
2021/01/10 03:30:19;;;;;;;;;71.50;48.25;;;;;-1.83;96.76;100427.03;4988519;28;9542;-62
2021/01/10 03:32:46;;;;;;;;;68.25;47.75;;;;;-1.75;97.20;100424.41;4998124;28;8949;-62
2021/01/10 03:35:15;;;;;;;;;65.50;43.00;;;;;-1.91;96.54;100426.16;4999742;28;8845;-62
2021/01/10 03:37:43;;;;;;;;;65.25;44.00;;;;;-1.84;96.33;100420.03;4993394;28;8851;-62
2021/01/10 03:40:11;;;;;;;;;65.25;42.50;;;;;-1.89;96.52;100421.78;4994588;28;8842;-62
2021/01/10 03:42:39;;;;;;;;;61.25;42.25;;;;;-1.85;96.38;100426.16;5004247;28;8880;-62
2021/01/10 03:45:08;;;;;;;;;116.25;75.00;;;;;-1.90;96.12;100427.91;4975467;28;8851;-62
2021/01/10 03:47:36;;;;;;;;;441.25;281.25;;;;;-1.84;96.46;100428.81;4983276;28;8858;-62
2021/01/10 03:50:05;;;;;;;;;551.75;346.00;;;;;-1.98;96.57;100427.88;5002166;28;8955;-62
2021/01/10 03:52:32;;;;;;;;;109.75;77.00;;;;;-1.93;96.71;100425.28;4999573;28;8977;-62
2021/01/10 03:54:59;;;;;;;;;149.50;106.00;;;;;-1.90;96.76;100420.00;4985719;28;8889;-62
2021/01/10 03:57:26;;;;;;;;;62.00;44.50;;;;;-2.00;96.63;100416.50;5001883;28;8929;-62
2021/01/10 03:59:53;;;;;;;;;68.50;49.00;;;;;-1.89;96.78;100424.41;5000199;28;8973;-62
2021/01/10 04:02:20;;;;;;;;;69.00;45.75;;;;;-1.98;96.27;100426.13;5004490;28;8856;-62
2021/01/10 04:04:47;;;;;;;;;110.25;78.25;;;;;-1.95;96.65;100419.13;4997995;28;8981;-62
2021/01/10 04:07:14;;;;;;;;;100.00;65.50;;;;;-1.92;96.81;100421.75;5002993;28;8866;-62
2021/01/10 04:09:41;;;;;;;;;77.50;51.00;;;;;-2.11;97.15;100418.22;5000182;28;8933;-62
2021/01/10 04:12:08;;;;;;;;;114.75;78.25;;;;;-2.15;97.16;100417.34;5000415;28;8847;-62
2021/01/10 04:14:35;;;;;;;;;70.75;40.50;;;;;-2.05;97.41;100419.13;4980118;28;8844;-62
2021/01/10 04:17:03;;;;;;;;;73.25;54.00;;;;;-1.71;97.58;100419.16;5003383;28;8912;-62
2021/01/10 04:19:30;;;;;;;;;91.50;64.00;;;;;-1.91;97.36;100429.66;5000577;28;8874;-62
2021/01/10 04:21:57;;;;;;;;;76.75;50.00;;;;;-1.59;97.82;100427.03;5004572;28;8926;-62
2021/01/10 04:24:24;;;;;;;;;66.25;39.75;;;;;-1.83;97.45;100424.41;4996441;28;8855;-62
2021/01/10 04:26:51;;;;;;;;;82.00;54.00;;;;;-2.07;97.28;100428.75;4987371;28;8887;-62
2021/01/10 04:29:19;;;;;;;;;67.00;44.00;;;;;-1.84;96.93;100422.66;4997363;28;9568;-62
2021/01/10 04:31:49;;;;;;;;;64.50;40.75;;;;;-2.03;96.37;100421.75;5004356;28;8889;-62
2021/01/10 04:34:18;;;;;;;;;68.50;48.00;;;;;-1.94;96.82;100420.91;4984777;28;8834;-62
2021/01/10 04:36:45;;;;;;;;;74.50;48.50;;;;;-2.21;96.52;100422.63;4983325;28;8841;-62
2021/01/10 04:39:15;;;;;;;;;62.50;44.00;;;;;-2.05;96.71;100423.53;4983749;28;8874;-62
2021/01/10 04:41:44;;;;;;;;;77.00;52.00;;;;;-2.05;96.71;100424.38;5003223;28;8852;-62
2021/01/10 04:44:13;;;;;;;;;63.50;40.00;;;;;-2.06;96.60;100427.00;4984123;28;8847;-62
2021/01/10 04:46:41;;;;;;;;;66.50;42.50;;;;;-2.17;96.80;100429.63;4988421;28;8871;-62
2021/01/10 04:49:10;;;;;;;;;80.50;55.75;;;;;-2.14;96.80;100429.63;4983608;28;8863;-62
2021/01/10 04:51:39;;;;;;;;;64.25;44.50;;;;;-2.14;96.56;100428.75;5001391;28;8856;-62
2021/01/10 04:54:08;;;;;;;;;63.00;34.50;;;;;-2.19;96.93;100431.34;4984643;28;8982;-62
2021/01/10 04:56:37;;;;;;;;;69.25;44.00;;;;;-2.15;96.96;100427.00;4994263;28;8883;-62
2021/01/10 04:59:06;;;;;;;;;77.50;48.75;;;;;-2.21;96.91;100438.41;4983444;28;8967;-62
2021/01/10 05:01:46;;;;;;;;;70.75;43.00;;;;;-2.16;96.67;100438.38;5000985;28;8910;-62
2021/01/10 05:04:13;;;;;;;;;71.50;49.50;;;;;-2.12;97.04;100441.03;4984032;28;8826;-62
2021/01/10 05:06:41;;;;;;;;;76.00;53.50;;;;;-2.19;97.07;100452.41;5001277;28;8847;-62
2021/01/10 05:09:08;;;;;;;;;92.25;61.50;;;;;-2.18;96.85;100453.31;4967709;28;8851;-62
2021/01/10 05:11:36;;;;;;;;;82.50;48.75;;;;;-2.27;97.09;100455.00;4997271;28;8870;-62
2021/01/10 05:14:04;;;;;;;;;84.00;53.75;;;;;-1.92;97.21;100445.44;5000420;28;8866;-62
2021/01/10 05:16:33;;;;;;;;;84.50;58.75;;;;;-2.21;97.10;100455.03;5000813;28;8834;-62
2021/01/10 05:19:03;;;;;;;;;81.50;55.00;;;;;-2.08;97.35;100455.97;5002245;28;8914;-62
2021/01/10 05:21:30;;;;;;;;;83.25;57.75;;;;;-1.60;97.08;100451.63;5006338;28;8852;-63
2021/01/10 05:23:59;;;;;;;;;66.75;45.00;;;;;-1.95;96.79;100451.56;4981960;28;8870;-63
2021/01/10 05:26:37;;;;;;;;;77.00;51.00;;;;;-1.64;97.55;100457.75;5000386;28;8859;-62
2021/01/10 05:29:09;;;;;;;;;65.00;46.50;;;;;-2.22;96.83;100457.66;5006098;28;8856;-62
2021/01/10 05:31:46;;;;;;;;;53.00;38.75;;;;;-2.31;97.25;100457.66;4996408;28;8870;-62
2021/01/10 05:34:17;;;;;;;;;65.00;42.25;;;;;-2.37;96.83;100454.97;5001727;28;8830;-62
2021/01/10 05:36:44;;;;;;;;;61.50;41.25;;;;;-2.26;97.08;100458.53;4999875;28;8850;-62
2021/01/10 05:39:17;;;;;;;;;68.25;44.50;;;;;-2.36;96.75;100462.00;5002001;28;8899;-62
2021/01/10 05:42:02;;;;;;;;;72.75;47.00;;;;;-2.22;97.02;100462.91;5004648;28;8847;-62
2021/01/10 05:44:52;;;;;;;;;70.50;48.50;;;;;-2.35;97.19;100455.88;4975774;28;8846;-62
2021/01/10 05:47:20;;;;;;;;;75.50;50.50;;;;;-2.31;97.15;100462.91;4994617;28;8881;-62
2021/01/10 05:49:49;;;;;;;;;80.75;53.00;;;;;-2.37;97.30;100462.88;4978919;28;8895;-62
2021/01/10 05:52:18;;;;;;;;;74.50;47.50;;;;;-2.28;97.22;100469.03;4981186;28;8849;-62
2021/01/10 05:54:53;;;;;;;;;78.50;53.50;;;;;-2.44;97.37;100472.50;4983404;28;8850;-62
2021/01/10 05:57:28;;;;;;;;;53.25;37.50;;;;;-2.53;97.19;100468.06;4990942;28;8875;-62
2021/01/10 05:59:57;;;;;;;;;71.50;41.00;;;;;-2.54;97.29;100471.56;4987717;28;8875;-62
2021/01/10 06:02:36;;;;;;;;;69.50;45.25;;;;;-2.46;97.34;100479.50;5005816;28;8839;-62
2021/01/10 06:05:19;;;;;;;;;62.75;46.75;;;;;-2.44;97.40;100489.16;4983764;28;8979;-62
2021/01/10 06:07:48;;;;;;;;;72.75;50.00;;;;;-2.36;97.32;100485.69;4998709;28;8967;-62
2021/01/10 06:10:29;;;;;;;;;58.50;38.25;;;;;-2.41;97.80;100496.16;5001359;28;8846;-63
2021/01/10 06:13:05;;;;;;;;;48.50;36.50;;;;;-2.46;97.88;100495.28;4987501;28;9597;-62
2021/01/10 06:15:34;;;;;;;;;70.50;48.00;;;;;-2.27;97.91;100502.34;4999172;28;8848;-62
2021/01/10 06:18:05;;;;;;;;;48.00;24.50;;;;;-2.40;97.83;100507.56;4999213;28;8973;-62
2021/01/10 06:20:34;;;;;;;;;61.50;36.75;;;;;-2.33;97.76;100506.72;5008047;28;8969;-62
2021/01/10 06:23:07;;;;;;;;;72.00;48.75;;;;;-2.31;97.69;100516.38;4983978;28;8840;-62
2021/01/10 06:25:38;;;;;;;;;65.25;47.50;;;;;-2.37;97.57;100511.09;4980093;28;8878;-62
2021/01/10 06:28:17;;;;;;;;;74.25;46.50;;;;;-2.42;97.61;100518.09;5010471;28;8868;-62
2021/01/10 06:30:59;;;;;;;;;62.75;35.25;;;;;-2.49;97.59;100517.16;4987766;28;8838;-62
2021/01/10 06:33:31;;;;;;;;;63.25;43.25;;;;;-2.41;97.41;100513.72;5000095;28;8898;-62
2021/01/10 06:36:05;;;;;;;;;42.75;28.25;;;;;-2.50;97.41;100518.06;4986094;28;8859;-62
2021/01/10 06:38:34;;;;;;;;;71.50;48.50;;;;;-2.35;97.62;100511.97;5005446;28;8858;-62
2021/01/10 06:41:28;;;;;;;;;47.50;31.25;;;;;-2.46;97.64;100517.19;4997004;28;8883;-62
2021/01/10 06:43:59;;;;;;;;;64.50;44.50;;;;;-2.45;97.57;100513.69;4978518;28;8847;-62
2021/01/10 06:46:26;;;;;;;;;75.25;47.50;;;;;-2.43;97.64;100517.19;4985716;28;8945;-62
2021/01/10 06:48:54;;;;;;;;;54.25;44.75;;;;;-2.43;97.39;100527.69;5006371;28;8835;-62
2021/01/10 06:51:30;;;;;;;;;51.50;38.00;;;;;-2.47;97.50;100528.56;4984464;28;8840;-62
2021/01/10 06:54:04;;;;;;;;;83.00;49.00;;;;;-2.39;97.25;100528.63;5004384;28;8862;-62
2021/01/10 06:56:32;;;;;;;;;59.25;42.50;;;;;-2.46;97.51;100516.31;5002176;28;8864;-61
2021/01/10 06:59:22;;;;;;;;;62.25;44.75;;;;;-2.45;97.27;100524.22;4986905;28;9066;-62
2021/01/10 07:01:49;;;;;;;;;66.50;43.50;;;;;-2.30;97.38;100519.88;5002454;28;8838;-62
2021/01/10 07:04:48;;;;;;;;;128.00;101.25;;;;;-2.38;97.49;100529.50;4996809;28;8942;-62
2021/01/10 07:07:35;;;;;;;;;113.00;83.00;;;;;-2.09;97.55;100532.22;5004150;28;8851;-62
2021/01/10 07:10:06;;;;;;;;;71.75;43.25;;;;;-2.15;97.41;100522.56;4985629;28;8847;-62
2021/01/10 07:12:33;;;;;;;;;82.50;50.50;;;;;-1.95;97.35;100530.50;5003804;28;8863;-62
2021/01/10 07:15:29;;;;;;;;;74.00;39.75;;;;;-1.79;97.47;100532.34;5001880;28;8845;-62
2021/01/10 07:18:08;;;;;;;;;57.75;41.50;;;;;-1.74;97.28;100523.56;4996876;28;8847;-62
2021/01/10 07:20:43;;;;;;;;;75.00;49.00;;;;;-1.96;97.37;100527.91;5001375;28;8858;-62
2021/01/10 07:23:30;;;;;;;;;77.75;56.50;;;;;-1.93;96.91;100523.50;5007861;28;8859;-62
2021/01/10 07:25:58;;;;;;;;;62.00;42.00;;;;;-1.95;96.74;100524.38;4994493;28;8880;-62
2021/01/10 07:28:40;;;;;;;;;75.75;49.25;;;;;-2.17;96.61;100529.56;5005514;28;8891;-62
2021/01/10 07:31:10;;;;;;;;;68.00;46.75;;;;;-2.13;96.64;100534.00;4982241;28;8849;-61
2021/01/10 07:33:38;;;;;;;;;66.75;47.50;;;;;-2.29;96.66;100530.41;4997226;28;8889;-62
2021/01/10 07:36:05;;;;;;;;;83.50;54.25;;;;;-2.32;97.34;100540.91;4999428;28;8846;-62
2021/01/10 07:38:35;;;;;;;;;78.50;49.00;;;;;-2.31;97.33;100537.41;4979630;28;8949;-61
2021/01/10 07:41:28;;;;;;;;;88.75;58.25;;;;;-2.33;97.46;100543.53;5001031;28;8890;-62
2021/01/10 07:43:58;;;;;;;;;121.75;83.75;;;;;-2.30;97.55;100554.06;5003897;28;8878;-61
2021/01/10 07:46:54;;;;;;;;;108.00;72.75;;;;;-2.33;97.60;100556.69;4999904;28;8841;-62
2021/01/10 07:49:31;;;;;;;;;122.25;80.50;;;;;-2.16;97.64;100552.38;4993516;28;8863;-62
2021/01/10 07:51:59;;;;;;;;;92.25;63.00;;;;;-2.23;97.90;100553.22;4997390;28;8819;-61
2021/01/10 07:54:52;;;;;;;;;152.00;101.75;;;;;-2.44;98.00;100560.13;4999232;28;8854;-62
2021/01/10 07:57:33;;;;;;;;;92.25;59.75;;;;;-2.47;98.44;100557.50;5004327;28;8950;-62
2021/01/10 08:00:12;;;;;;;;;81.50;50.25;;;;;-2.53;98.67;100565.34;4977132;28;8843;-62
2021/01/10 08:02:49;;;;;;;;;89.75;60.50;;;;;-2.11;98.97;100558.53;4997497;28;8863;-62
2021/01/10 08:05:39;;;;;;;;;90.00;64.75;;;;;-2.30;98.96;100547.06;4997470;28;8840;-62
2021/01/10 08:08:18;;;;;;;;;66.75;46.75;;;;;-2.23;99.05;100551.47;5003892;28;8878;-62
2021/01/10 08:10:56;;;;;;;;;69.75;47.00;;;;;-2.31;98.96;100539.19;4986892;28;9561;-62
2021/01/10 08:13:27;;;;;;;;;71.25;49.50;;;;;-2.22;99.11;100542.69;5001178;28;8875;-62
2021/01/10 08:16:00;;;;;;;;;68.50;45.00;;;;;-2.39;98.67;100533.00;5000552;28;8918;-62
2021/01/10 08:18:36;;;;;;;;;68.75;45.00;;;;;-2.32;98.76;100535.63;5001664;28;8856;-62
2021/01/10 08:21:08;;;;;;;;;69.00;48.00;;;;;-2.46;98.53;100540.84;4993255;28;8962;-62
2021/01/10 08:23:36;;;;;;;;;64.25;36.00;;;;;-2.62;98.44;100551.28;4994479;28;8919;-62
2021/01/10 08:26:18;;;;;;;;;59.50;32.50;;;;;-2.62;98.59;100548.66;4987460;28;8836;-62
2021/01/10 08:28:47;;;;;;;;;57.25;40.00;;;;;-2.57;98.77;100550.44;4990027;28;8925;-62
2021/01/10 08:31:21;;;;;;;;;71.25;40.00;;;;;-2.61;98.39;100553.91;4984193;28;8856;-62
2021/01/10 08:33:59;;;;;;;;;69.25;40.50;;;;;-2.47;98.63;100554.00;5000879;28;8854;-62
2021/01/10 08:36:26;;;;;;;;;64.75;45.75;;;;;-2.45;98.25;100550.50;5000355;28;8854;-62
2021/01/10 08:39:05;;;;;;;;;65.75;42.25;;;;;-2.71;98.57;100558.25;4999764;28;8852;-62
2021/01/10 08:41:49;;;;;;;;;58.50;39.50;;;;;-2.61;98.49;100559.16;5000102;28;8824;-62
2021/01/10 08:44:23;;;;;;;;;70.75;46.50;;;;;-2.39;98.22;100561.94;4977313;28;8863;-62
2021/01/10 08:46:52;;;;;;;;;62.75;44.00;;;;;-2.61;98.23;100564.41;5003122;28;8858;-62
2021/01/10 08:49:26;;;;;;;;;50.25;36.25;;;;;-2.70;98.49;100560.00;5000703;28;8861;-62
2021/01/10 08:51:53;;;;;;;;;53.25;41.00;;;;;-2.66;98.19;100563.50;5003138;28;8851;-62
2021/01/10 08:54:24;;;;;;;;;49.25;33.00;;;;;-2.76;98.29;100566.97;4987538;28;8884;-62
2021/01/10 08:56:54;;;;;;;;;64.50;47.75;;;;;-2.61;98.46;100572.28;4998277;28;8860;-62
2021/01/10 08:59:23;;;;;;;;;81.75;55.25;;;;;-2.33;98.58;100575.97;4997267;28;9591;-62
2021/01/10 09:01:51;;;;;;;;;67.75;49.25;;;;;-2.34;98.72;100573.31;5001484;28;8961;-62
2021/01/10 09:04:19;;;;;;;;;98.75;65.50;;;;;-2.39;98.42;100580.34;5003686;28;9627;-62
2021/01/10 09:07:10;;;;;;;;;144.50;98.00;;;;;-2.02;98.54;100590.16;4999480;28;8846;-62
2021/01/10 09:09:47;;;;;;;;;110.75;76.50;;;;;-2.27;98.15;100590.91;5001664;28;8850;-62
2021/01/10 09:12:39;;;;;;;;;134.00;105.75;;;;;-2.44;97.82;100594.31;4977545;28;8843;-62
2021/01/10 09:15:21;;;;;;;;;107.75;74.25;;;;;-2.52;97.59;100598.66;4983895;28;9359;-62
2021/01/10 09:18:03;;;;;;;;;70.75;49.00;;;;;-2.61;96.82;100595.94;4975038;28;8871;-62
2021/01/10 09:20:57;;;;;;;;;96.50;66.50;;;;;-2.51;96.92;100595.16;5000920;28;8851;-62
2021/01/10 09:23:24;;;;;;;;;102.00;69.00;;;;;-2.49;96.55;100596.03;4987605;28;8840;-62
2021/01/10 09:25:51;;;;;;;;;89.25;63.50;;;;;-2.41;96.50;100600.47;5004056;28;8852;-62
2021/01/10 09:28:21;;;;;;;;;69.75;48.00;;;;;-2.43;96.16;100590.81;4983372;28;8881;-62
2021/01/10 09:30:54;;;;;;;;;71.75;43.50;;;;;-2.45;96.48;100589.03;5001017;28;10873;-62
2021/01/10 09:33:41;;;;;;;;;82.00;54.00;;;;;-2.50;96.35;100588.13;5016901;28;8975;-62
2021/01/10 09:36:17;;;;;;;;;78.25;58.50;;;;;-2.48;96.62;100581.13;5023341;28;8847;-62
2021/01/10 09:38:55;;;;;;;;;86.50;59.50;;;;;-2.50;96.40;100577.63;5020726;28;8857;-62
2021/01/10 09:41:23;;;;;;;;;92.00;60.75;;;;;-2.52;96.08;100572.38;5025086;28;8836;-62
2021/01/10 09:43:55;;;;;;;;;84.75;60.75;;;;;-2.45;95.94;100573.25;5013023;28;8841;-62
2021/01/10 09:46:38;;;;;;;;;131.00;75.25;;;;;-2.15;96.26;100575.19;5022290;28;8869;-62
2021/01/10 09:49:16;;;;;;;;;69.50;48.50;;;;;-2.28;96.18;100569.00;5019364;28;8862;-62
2021/01/10 09:51:50;;;;;;;;;130.25;86.00;;;;;-2.02;95.91;100566.47;5012225;28;8871;-62
2021/01/10 09:54:24;;;;;;;;;100.25;69.75;;;;;-2.50;95.12;100573.25;5038824;28;8847;-62
2021/01/10 09:56:56;;;;;;;;;101.00;68.50;;;;;-2.16;95.04;100568.16;5028869;28;8915;-62
2021/01/10 09:59:46;;;;;;;;;71.75;46.00;;;;;-2.39;94.50;100567.19;5024338;28;8925;-60
2021/01/10 10:02:23;;;;;;;;;76.25;52.75;;;;;-2.32;94.39;100558.44;5023167;28;8835;-60
2021/01/10 10:05:06;;;;;;;;;85.25;59.00;;;;;-1.80;94.42;100571.78;5023712;28;8867;-60
2021/01/10 10:07:43;;;;;;;;;69.75;44.00;;;;;-1.88;94.26;100563.00;5036569;28;9599;-60
2021/01/10 10:10:26;;;;;;;;;90.25;60.75;;;;;-2.29;93.98;100555.81;5040098;28;8831;-60
2021/01/10 10:13:01;;;;;;;;;63.50;47.00;;;;;-2.25;94.13;100555.84;5016427;28;8851;-59
2021/01/10 10:15:55;;;;;;;;;66.00;46.25;;;;;-1.88;94.38;100552.47;5017623;28;8831;-61
2021/01/10 10:18:28;;;;;;;;;69.75;46.25;;;;;-2.30;94.05;100533.91;5022468;28;8881;-60
2021/01/10 10:20:56;;;;;;;;;141.00;94.00;;;;;-2.08;94.39;100529.63;5023053;28;8844;-60
2021/01/10 10:23:23;;;;;;;;;76.50;54.25;;;;;-2.21;94.33;100533.09;5039623;28;8906;-59
2021/01/10 10:25:52;;;;;;;;;82.25;52.25;;;;;-2.34;94.77;100544.41;5020968;28;8873;-61
2021/01/10 10:28:22;;;;;;;;;91.25;60.50;;;;;-1.93;94.82;100541.06;5038312;28;8835;-61
2021/01/10 10:30:49;;;;;;;;;102.00;68.50;;;;;-1.88;94.66;100541.94;5012926;28;9618;-61
2021/01/10 10:33:17;;;;;;;;;89.00;53.75;;;;;-2.13;94.65;100546.25;5022630;28;8938;-61
2021/01/10 10:35:44;;;;;;;;;78.25;52.00;;;;;-1.77;94.88;100548.13;5014787;28;8847;-61
2021/01/10 10:38:11;;;;;;;;;71.00;50.75;;;;;-2.17;94.44;100555.88;5021224;28;8839;-60
2021/01/10 10:40:40;;;;;;;;;74.50;54.00;;;;;-1.90;94.43;100549.81;5019636;28;8839;-60
2021/01/10 10:43:07;;;;;;;;;77.50;50.75;;;;;-2.01;94.34;100554.19;5040035;28;8849;-61
2021/01/10 10:45:34;;;;;;;;;93.00;63.00;;;;;-1.92;93.87;100555.97;5021935;28;8833;-61
2021/01/10 10:48:02;;;;;;;;;63.75;49.50;;;;;-2.24;94.60;100548.81;5019026;28;8941;-60
2021/01/10 10:50:29;;;;;;;;;100.75;69.50;;;;;-2.31;94.64;100547.06;5026268;28;8829;-61
2021/01/10 10:52:57;;;;;;;;;84.75;58.00;;;;;-2.27;95.15;100548.81;5025557;28;8824;-60
2021/01/10 10:55:26;;;;;;;;;71.25;48.00;;;;;-2.38;94.95;100540.88;5026118;28;8836;-60
2021/01/10 10:57:53;;;;;;;;;78.00;49.00;;;;;-2.43;95.13;100542.59;5019616;28;8890;-60
2021/01/10 11:00:20;;;;;;;;;81.75;49.50;;;;;-2.39;95.22;100533.00;5019849;28;8856;-60
2021/01/10 11:02:48;;;;;;;;;62.00;43.25;;;;;-2.46;95.37;100522.44;5024641;28;8856;-59
2021/01/10 11:05:15;;;;;;;;;53.75;39.75;;;;;-2.54;95.57;100526.78;5021881;28;8928;-60
2021/01/10 11:07:42;;;;;;;;;67.50;48.75;;;;;-2.37;95.35;100515.47;5022032;28;8816;-60
2021/01/10 11:10:10;;;;;;;;;41.00;22.25;;;;;-2.28;95.10;100524.28;5026819;28;8844;-60
2021/01/10 11:12:37;;;;;;;;;72.25;46.25;;;;;-2.14;94.99;100516.44;5032797;28;8886;-60
2021/01/10 11:15:07;;;;;;;;;81.50;49.75;;;;;-2.20;95.08;100519.03;5022177;28;8855;-59
2021/01/10 11:17:36;;;;;;;;;65.25;47.00;;;;;-2.02;95.00;100515.59;5020256;28;8862;-60
2021/01/10 11:20:04;;;;;;;;;52.25;34.00;;;;;-2.31;94.49;100521.63;5021450;28;8922;-60
2021/01/10 11:22:35;;;;;;;;;62.00;41.25;;;;;-1.93;94.27;100520.00;5022114;28;8927;-59
2021/01/10 11:25:06;;;;;;;;;56.75;38.75;;;;;-2.38;94.29;100511.09;5026466;28;8863;-60
2021/01/10 11:27:33;;;;;;;;;64.00;36.25;;;;;-2.34;93.81;100504.94;5021336;28;8934;-61
2021/01/10 11:30:01;;;;;;;;;56.25;40.50;;;;;-2.12;93.58;100501.53;5021206;28;8924;-60
2021/01/10 11:32:31;;;;;;;;;59.75;34.75;;;;;-2.25;92.96;100494.47;5040955;28;8962;-61
2021/01/10 11:34:58;;;;;;;;;68.00;45.00;;;;;-2.07;92.80;100494.53;5020904;28;8848;-60
2021/01/10 11:37:25;;;;;;;;;74.50;48.00;;;;;-2.09;92.57;100501.53;5018502;28;8820;-61
2021/01/10 11:39:52;;;;;;;;;58.25;36.75;;;;;-1.89;93.16;100498.09;5022948;28;8958;-61